sensor_id;sensor_type;location;lat;lon;timestamp;P1;durP1;ratioP1;P2;durP2;ratioP2
15228;SDS011;7717;47.792;12.076;2023-06-22T00:02:05;11.47;;;7.03;;
15228;SDS011;7717;47.792;12.076;2023-06-22T00:04:31;13.27;;;9.20;;
15228;SDS011;7717;47.792;12.076;2023-06-22T00:06:56;12.20;;;8.57;;
15228;SDS011;7717;47.792;12.076;2023-06-22T00:09:21;12.43;;;8.27;;
15228;SDS011;7717;47.792;12.076;2023-06-22T00:11:47;12.90;;;8.10;;
15228;SDS011;7717;47.792;12.076;2023-06-22T00:14:12;14.03;;;8.40;;
15228;SDS011;7717;47.792;12.076;2023-06-22T00:16:37;14.27;;;8.23;;
15228;SDS011;7717;47.792;12.076;2023-06-22T00:19:03;12.50;;;8.27;;
15228;SDS011;7717;47.792;12.076;2023-06-22T00:21:29;10.53;;;8.50;;
15228;SDS011;7717;47.792;12.076;2023-06-22T00:23:54;18.67;;;8.67;;
15228;SDS011;7717;47.792;12.076;2023-06-22T00:26:20;12.83;;;8.43;;
15228;SDS011;7717;47.792;12.076;2023-06-22T00:28:46;13.17;;;8.03;;
15228;SDS011;7717;47.792;12.076;2023-06-22T00:31:12;13.00;;;8.40;;
15228;SDS011;7717;47.792;12.076;2023-06-22T00:33:38;13.77;;;8.60;;
15228;SDS011;7717;47.792;12.076;2023-06-22T00:36:03;12.73;;;8.03;;
15228;SDS011;7717;47.792;12.076;2023-06-22T00:38:29;10.80;;;7.67;;
15228;SDS011;7717;47.792;12.076;2023-06-22T00:40:54;11.90;;;7.80;;
15228;SDS011;7717;47.792;12.076;2023-06-22T00:43:20;15.60;;;8.37;;
15228;SDS011;7717;47.792;12.076;2023-06-22T00:45:45;14.40;;;8.57;;
15228;SDS011;7717;47.792;12.076;2023-06-22T00:48:11;15.90;;;9.10;;
15228;SDS011;7717;47.792;12.076;2023-06-22T00:50:37;12.17;;;8.17;;
15228;SDS011;7717;47.792;12.076;2023-06-22T00:53:05;10.80;;;8.60;;
15228;SDS011;7717;47.792;12.076;2023-06-22T00:55:33;12.83;;;8.70;;
15228;SDS011;7717;47.792;12.076;2023-06-22T00:58:06;11.87;;;8.20;;
15228;SDS011;7717;47.792;12.076;2023-06-22T01:00:35;14.47;;;8.50;;
15228;SDS011;7717;47.792;12.076;2023-06-22T01:03:01;13.33;;;8.97;;
15228;SDS011;7717;47.792;12.076;2023-06-22T01:05:27;13.93;;;8.70;;
15228;SDS011;7717;47.792;12.076;2023-06-22T01:10:50;13.73;;;9.10;;
15228;SDS011;7717;47.792;12.076;2023-06-22T01:13:31;12.50;;;8.47;;
15228;SDS011;7717;47.792;12.076;2023-06-22T01:16:06;11.80;;;8.70;;
15228;SDS011;7717;47.792;12.076;2023-06-22T01:18:34;12.07;;;8.23;;
15228;SDS011;7717;47.792;12.076;2023-06-22T01:21:05;12.63;;;8.33;;
15228;SDS011;7717;47.792;12.076;2023-06-22T01:26:06;14.03;;;8.40;;
15228;SDS011;7717;47.792;12.076;2023-06-22T01:28:49;16.77;;;8.17;;
15228;SDS011;7717;47.792;12.076;2023-06-22T01:31:18;13.40;;;8.53;;
15228;SDS011;7717;47.792;12.076;2023-06-22T01:33:50;15.77;;;9.33;;
15228;SDS011;7717;47.792;12.076;2023-06-22T01:36:19;13.27;;;8.27;;
15228;SDS011;7717;47.792;12.076;2023-06-22T01:38:46;14.17;;;8.87;;
15228;SDS011;7717;47.792;12.076;2023-06-22T01:41:12;14.20;;;9.33;;
15228;SDS011;7717;47.792;12.076;2023-06-22T01:43:38;14.00;;;8.53;;
15228;SDS011;7717;47.792;12.076;2023-06-22T01:46:04;17.97;;;9.70;;
15228;SDS011;7717;47.792;12.076;2023-06-22T01:48:30;12.03;;;8.97;;
15228;SDS011;7717;47.792;12.076;2023-06-22T01:50:56;12.77;;;9.90;;
15228;SDS011;7717;47.792;12.076;2023-06-22T01:53:22;14.13;;;9.67;;
15228;SDS011;7717;47.792;12.076;2023-06-22T01:55:48;14.00;;;8.67;;
15228;SDS011;7717;47.792;12.076;2023-06-22T01:58:13;18.53;;;9.30;;
15228;SDS011;7717;47.792;12.076;2023-06-22T02:00:58;10.30;;;9.20;;
15228;SDS011;7717;47.792;12.076;2023-06-22T02:03:31;14.93;;;9.77;;
15228;SDS011;7717;47.792;12.076;2023-06-22T02:06:08;17.13;;;9.00;;
15228;SDS011;7717;47.792;12.076;2023-06-22T02:08:41;13.87;;;9.60;;
15228;SDS011;7717;47.792;12.076;2023-06-22T02:11:17;13.73;;;9.30;;
15228;SDS011;7717;47.792;12.076;2023-06-22T02:13:48;12.93;;;9.90;;
15228;SDS011;7717;47.792;12.076;2023-06-22T02:16:15;13.43;;;9.80;;
15228;SDS011;7717;47.792;12.076;2023-06-22T02:18:48;13.97;;;8.53;;
15228;SDS011;7717;47.792;12.076;2023-06-22T02:21:17;12.87;;;8.43;;
15228;SDS011;7717;47.792;12.076;2023-06-22T02:23:44;12.47;;;8.77;;
15228;SDS011;7717;47.792;12.076;2023-06-22T02:26:09;15.70;;;9.20;;
15228;SDS011;7717;47.792;12.076;2023-06-22T02:28:35;11.70;;;8.67;;
15228;SDS011;7717;47.792;12.076;2023-06-22T02:31:00;17.53;;;9.37;;
15228;SDS011;7717;47.792;12.076;2023-06-22T02:33:26;14.07;;;8.63;;
15228;SDS011;7717;47.792;12.076;2023-06-22T02:35:52;13.07;;;9.43;;
15228;SDS011;7717;47.792;12.076;2023-06-22T02:38:18;16.70;;;10.27;;
15228;SDS011;7717;47.792;12.076;2023-06-22T02:40:44;13.80;;;8.47;;
15228;SDS011;7717;47.792;12.076;2023-06-22T02:43:09;13.83;;;9.60;;
15228;SDS011;7717;47.792;12.076;2023-06-22T02:45:35;14.40;;;10.17;;
15228;SDS011;7717;47.792;12.076;2023-06-22T02:48:00;14.97;;;9.30;;
15228;SDS011;7717;47.792;12.076;2023-06-22T02:50:26;16.70;;;9.83;;
15228;SDS011;7717;47.792;12.076;2023-06-22T02:52:51;13.63;;;9.57;;
15228;SDS011;7717;47.792;12.076;2023-06-22T02:55:17;16.13;;;9.43;;
15228;SDS011;7717;47.792;12.076;2023-06-22T02:57:45;12.03;;;8.40;;
15228;SDS011;7717;47.792;12.076;2023-06-22T03:00:13;16.83;;;11.10;;
15228;SDS011;7717;47.792;12.076;2023-06-22T03:02:43;14.50;;;9.43;;
15228;SDS011;7717;47.792;12.076;2023-06-22T03:05:09;13.80;;;9.47;;
15228;SDS011;7717;47.792;12.076;2023-06-22T03:07:38;11.60;;;8.80;;
15228;SDS011;7717;47.792;12.076;2023-06-22T03:10:04;13.97;;;9.80;;
15228;SDS011;7717;47.792;12.076;2023-06-22T03:12:30;17.87;;;9.17;;
15228;SDS011;7717;47.792;12.076;2023-06-22T03:14:56;14.50;;;10.37;;
15228;SDS011;7717;47.792;12.076;2023-06-22T03:17:21;12.63;;;9.53;;
15228;SDS011;7717;47.792;12.076;2023-06-22T03:19:46;15.23;;;9.47;;
15228;SDS011;7717;47.792;12.076;2023-06-22T03:22:12;13.93;;;9.60;;
15228;SDS011;7717;47.792;12.076;2023-06-22T03:24:37;14.47;;;9.93;;
15228;SDS011;7717;47.792;12.076;2023-06-22T03:27:04;14.17;;;9.23;;
15228;SDS011;7717;47.792;12.076;2023-06-22T03:29:30;14.43;;;9.27;;
15228;SDS011;7717;47.792;12.076;2023-06-22T03:31:56;13.33;;;9.97;;
15228;SDS011;7717;47.792;12.076;2023-06-22T03:34:21;16.53;;;10.07;;
15228;SDS011;7717;47.792;12.076;2023-06-22T03:36:47;17.60;;;10.03;;
15228;SDS011;7717;47.792;12.076;2023-06-22T03:39:12;19.67;;;10.77;;
15228;SDS011;7717;47.792;12.076;2023-06-22T03:41:38;13.60;;;9.80;;
15228;SDS011;7717;47.792;12.076;2023-06-22T03:44:03;12.93;;;9.27;;
15228;SDS011;7717;47.792;12.076;2023-06-22T03:46:29;16.10;;;9.80;;
15228;SDS011;7717;47.792;12.076;2023-06-22T03:48:54;16.30;;;10.10;;
15228;SDS011;7717;47.792;12.076;2023-06-22T03:51:20;12.57;;;9.10;;
15228;SDS011;7717;47.792;12.076;2023-06-22T03:53:45;14.53;;;8.70;;
15228;SDS011;7717;47.792;12.076;2023-06-22T03:56:11;14.47;;;9.93;;
15228;SDS011;7717;47.792;12.076;2023-06-22T03:58:36;13.07;;;9.97;;
15228;SDS011;7717;47.792;12.076;2023-06-22T04:01:07;16.00;;;9.93;;
15228;SDS011;7717;47.792;12.076;2023-06-22T04:03:36;12.03;;;10.03;;
15228;SDS011;7717;47.792;12.076;2023-06-22T04:06:02;13.77;;;10.07;;
15228;SDS011;7717;47.792;12.076;2023-06-22T04:08:27;13.10;;;10.47;;
15228;SDS011;7717;47.792;12.076;2023-06-22T04:10:52;14.53;;;10.70;;
15228;SDS011;7717;47.792;12.076;2023-06-22T04:13:18;16.37;;;10.33;;
15228;SDS011;7717;47.792;12.076;2023-06-22T04:15:44;16.63;;;10.07;;
15228;SDS011;7717;47.792;12.076;2023-06-22T04:18:10;11.27;;;9.70;;
15228;SDS011;7717;47.792;12.076;2023-06-22T04:20:35;13.37;;;10.17;;
15228;SDS011;7717;47.792;12.076;2023-06-22T04:23:01;15.70;;;10.77;;
15228;SDS011;7717;47.792;12.076;2023-06-22T04:25:26;13.63;;;9.67;;
15228;SDS011;7717;47.792;12.076;2023-06-22T04:27:52;15.23;;;10.60;;
15228;SDS011;7717;47.792;12.076;2023-06-22T04:30:17;14.67;;;10.07;;
15228;SDS011;7717;47.792;12.076;2023-06-22T04:32:43;15.77;;;10.07;;
15228;SDS011;7717;47.792;12.076;2023-06-22T04:35:09;12.60;;;10.50;;
15228;SDS011;7717;47.792;12.076;2023-06-22T04:37:35;16.03;;;9.07;;
15228;SDS011;7717;47.792;12.076;2023-06-22T04:40:00;13.33;;;10.83;;
15228;SDS011;7717;47.792;12.076;2023-06-22T04:42:26;12.70;;;9.87;;
15228;SDS011;7717;47.792;12.076;2023-06-22T04:44:51;14.43;;;9.67;;
15228;SDS011;7717;47.792;12.076;2023-06-22T04:47:17;13.97;;;9.90;;
15228;SDS011;7717;47.792;12.076;2023-06-22T04:49:42;13.93;;;10.37;;
15228;SDS011;7717;47.792;12.076;2023-06-22T04:52:09;16.97;;;10.10;;
15228;SDS011;7717;47.792;12.076;2023-06-22T04:54:35;13.73;;;9.60;;
15228;SDS011;7717;47.792;12.076;2023-06-22T04:57:02;14.77;;;8.67;;
15228;SDS011;7717;47.792;12.076;2023-06-22T04:59:29;13.80;;;8.50;;
15228;SDS011;7717;47.792;12.076;2023-06-22T05:01:59;12.57;;;9.27;;
15228;SDS011;7717;47.792;12.076;2023-06-22T05:04:29;12.60;;;9.37;;
15228;SDS011;7717;47.792;12.076;2023-06-22T05:07:05;14.53;;;9.60;;
15228;SDS011;7717;47.792;12.076;2023-06-22T05:09:30;14.00;;;9.03;;
15228;SDS011;7717;47.792;12.076;2023-06-22T05:11:56;12.50;;;8.80;;
15228;SDS011;7717;47.792;12.076;2023-06-22T05:14:22;13.70;;;8.23;;
15228;SDS011;7717;47.792;12.076;2023-06-22T05:16:48;11.27;;;8.77;;
15228;SDS011;7717;47.792;12.076;2023-06-22T05:19:13;12.93;;;9.40;;
15228;SDS011;7717;47.792;12.076;2023-06-22T05:21:39;16.80;;;9.80;;
15228;SDS011;7717;47.792;12.076;2023-06-22T05:24:04;14.53;;;9.20;;
15228;SDS011;7717;47.792;12.076;2023-06-22T05:26:31;14.00;;;8.87;;
15228;SDS011;7717;47.792;12.076;2023-06-22T05:28:57;15.40;;;9.80;;
15228;SDS011;7717;47.792;12.076;2023-06-22T05:31:23;11.20;;;9.37;;
15228;SDS011;7717;47.792;12.076;2023-06-22T05:33:50;12.77;;;9.47;;
15228;SDS011;7717;47.792;12.076;2023-06-22T05:36:17;13.67;;;8.50;;
15228;SDS011;7717;47.792;12.076;2023-06-22T05:38:44;11.50;;;8.60;;
15228;SDS011;7717;47.792;12.076;2023-06-22T05:41:10;12.90;;;9.10;;
15228;SDS011;7717;47.792;12.076;2023-06-22T05:43:36;15.23;;;8.67;;
15228;SDS011;7717;47.792;12.076;2023-06-22T05:46:01;12.33;;;9.13;;
15228;SDS011;7717;47.792;12.076;2023-06-22T05:48:27;14.07;;;8.83;;
15228;SDS011;7717;47.792;12.076;2023-06-22T05:50:53;13.60;;;8.13;;
15228;SDS011;7717;47.792;12.076;2023-06-22T05:53:19;14.20;;;8.63;;
15228;SDS011;7717;47.792;12.076;2023-06-22T05:55:44;15.73;;;9.83;;
15228;SDS011;7717;47.792;12.076;2023-06-22T05:58:10;13.30;;;9.33;;
15228;SDS011;7717;47.792;12.076;2023-06-22T06:00:35;15.17;;;8.70;;
15228;SDS011;7717;47.792;12.076;2023-06-22T06:03:01;12.20;;;9.03;;
15228;SDS011;7717;47.792;12.076;2023-06-22T06:05:30;12.63;;;8.37;;
15228;SDS011;7717;47.792;12.076;2023-06-22T06:07:56;13.47;;;8.50;;
15228;SDS011;7717;47.792;12.076;2023-06-22T06:10:21;12.17;;;9.10;;
15228;SDS011;7717;47.792;12.076;2023-06-22T06:12:47;14.60;;;9.10;;
15228;SDS011;7717;47.792;12.076;2023-06-22T06:15:12;14.53;;;9.47;;
15228;SDS011;7717;47.792;12.076;2023-06-22T06:20:22;13.07;;;8.03;;
15228;SDS011;7717;47.792;12.076;2023-06-22T06:22:48;11.63;;;8.27;;
15228;SDS011;7717;47.792;12.076;2023-06-22T06:25:14;12.33;;;8.20;;
15228;SDS011;7717;47.792;12.076;2023-06-22T06:27:46;15.57;;;8.13;;
15228;SDS011;7717;47.792;12.076;2023-06-22T06:30:12;11.30;;;8.63;;
15228;SDS011;7717;47.792;12.076;2023-06-22T06:32:38;15.82;;;9.38;;
15228;SDS011;7717;47.792;12.076;2023-06-22T06:35:07;13.18;;;8.93;;
15228;SDS011;7717;47.792;12.076;2023-06-22T06:37:38;11.13;;;7.90;;
15228;SDS011;7717;47.792;12.076;2023-06-22T06:40:05;13.77;;;9.82;;
15228;SDS011;7717;47.792;12.076;2023-06-22T06:42:38;12.40;;;8.18;;
15228;SDS011;7717;47.792;12.076;2023-06-22T06:45:06;14.25;;;9.27;;
15228;SDS011;7717;47.792;12.076;2023-06-22T06:47:31;11.80;;;8.57;;
15228;SDS011;7717;47.792;12.076;2023-06-22T06:49:57;12.00;;;8.38;;
15228;SDS011;7717;47.792;12.076;2023-06-22T06:52:22;15.75;;;8.68;;
15228;SDS011;7717;47.792;12.076;2023-06-22T06:54:48;14.15;;;8.57;;
15228;SDS011;7717;47.792;12.076;2023-06-22T06:57:13;12.77;;;8.40;;
15228;SDS011;7717;47.792;12.076;2023-06-22T06:59:40;10.60;;;7.72;;
15228;SDS011;7717;47.792;12.076;2023-06-22T07:02:05;9.48;;;7.72;;
15228;SDS011;7717;47.792;12.076;2023-06-22T07:04:30;11.00;;;8.23;;
15228;SDS011;7717;47.792;12.076;2023-06-22T07:07:00;14.00;;;8.25;;
15228;SDS011;7717;47.792;12.076;2023-06-22T07:09:26;10.23;;;7.53;;
15228;SDS011;7717;47.792;12.076;2023-06-22T07:11:52;13.70;;;7.50;;
15228;SDS011;7717;47.792;12.076;2023-06-22T07:14:18;16.58;;;8.48;;
15228;SDS011;7717;47.792;12.076;2023-06-22T07:16:43;13.95;;;7.78;;
15228;SDS011;7717;47.792;12.076;2023-06-22T07:19:10;11.82;;;8.52;;
15228;SDS011;7717;47.792;12.076;2023-06-22T07:21:56;12.85;;;8.38;;
15228;SDS011;7717;47.792;12.076;2023-06-22T07:24:22;11.35;;;8.50;;
15228;SDS011;7717;47.792;12.076;2023-06-22T07:26:48;14.00;;;9.45;;
15228;SDS011;7717;47.792;12.076;2023-06-22T07:29:15;12.00;;;8.52;;
15228;SDS011;7717;47.792;12.076;2023-06-22T07:31:42;14.73;;;8.50;;
15228;SDS011;7717;47.792;12.076;2023-06-22T07:34:08;9.23;;;8.07;;
15228;SDS011;7717;47.792;12.076;2023-06-22T07:36:33;13.95;;;8.02;;
15228;SDS011;7717;47.792;12.076;2023-06-22T07:39:00;10.35;;;8.30;;
15228;SDS011;7717;47.792;12.076;2023-06-22T07:41:27;11.10;;;7.95;;
15228;SDS011;7717;47.792;12.076;2023-06-22T07:43:53;12.13;;;7.95;;
15228;SDS011;7717;47.792;12.076;2023-06-22T07:46:18;12.85;;;7.72;;
15228;SDS011;7717;47.792;12.076;2023-06-22T07:48:43;15.30;;;7.15;;
15228;SDS011;7717;47.792;12.076;2023-06-22T07:51:09;10.00;;;7.25;;
15228;SDS011;7717;47.792;12.076;2023-06-22T07:53:37;11.73;;;7.72;;
15228;SDS011;7717;47.792;12.076;2023-06-22T07:56:03;11.13;;;7.75;;
15228;SDS011;7717;47.792;12.076;2023-06-22T07:58:32;12.00;;;7.95;;
15228;SDS011;7717;47.792;12.076;2023-06-22T08:00:57;12.02;;;7.68;;
15228;SDS011;7717;47.792;12.076;2023-06-22T08:03:22;10.32;;;7.18;;
15228;SDS011;7717;47.792;12.076;2023-06-22T08:05:48;13.85;;;8.30;;
15228;SDS011;7717;47.792;12.076;2023-06-22T08:08:14;13.70;;;7.95;;
15228;SDS011;7717;47.792;12.076;2023-06-22T08:10:39;16.10;;;9.00;;
15228;SDS011;7717;47.792;12.076;2023-06-22T08:13:06;12.18;;;7.97;;
15228;SDS011;7717;47.792;12.076;2023-06-22T08:15:31;13.85;;;7.55;;
15228;SDS011;7717;47.792;12.076;2023-06-22T08:17:56;14.15;;;7.65;;
15228;SDS011;7717;47.792;12.076;2023-06-22T08:20:23;15.23;;;8.02;;
15228;SDS011;7717;47.792;12.076;2023-06-22T08:22:48;15.25;;;7.47;;
15228;SDS011;7717;47.792;12.076;2023-06-22T08:25:13;11.15;;;7.72;;
15228;SDS011;7717;47.792;12.076;2023-06-22T08:27:39;14.05;;;7.60;;
15228;SDS011;7717;47.792;12.076;2023-06-22T08:30:05;13.77;;;7.93;;
15228;SDS011;7717;47.792;12.076;2023-06-22T08:32:32;14.40;;;8.30;;
15228;SDS011;7717;47.792;12.076;2023-06-22T08:34:57;9.90;;;7.35;;
15228;SDS011;7717;47.792;12.076;2023-06-22T08:37:23;11.70;;;7.28;;
15228;SDS011;7717;47.792;12.076;2023-06-22T08:39:55;11.57;;;7.68;;
15228;SDS011;7717;47.792;12.076;2023-06-22T08:42:21;14.18;;;7.80;;
15228;SDS011;7717;47.792;12.076;2023-06-22T08:44:48;14.00;;;8.25;;
15228;SDS011;7717;47.792;12.076;2023-06-22T08:47:13;10.40;;;7.05;;
15228;SDS011;7717;47.792;12.076;2023-06-22T08:49:39;11.13;;;7.47;;
15228;SDS011;7717;47.792;12.076;2023-06-22T08:52:04;12.07;;;7.07;;
15228;SDS011;7717;47.792;12.076;2023-06-22T08:54:30;12.15;;;7.90;;
15228;SDS011;7717;47.792;12.076;2023-06-22T08:56:58;10.93;;;7.22;;
15228;SDS011;7717;47.792;12.076;2023-06-22T08:59:23;13.50;;;7.28;;
15228;SDS011;7717;47.792;12.076;2023-06-22T09:01:49;10.85;;;7.47;;
15228;SDS011;7717;47.792;12.076;2023-06-22T09:04:14;11.18;;;7.07;;
15228;SDS011;7717;47.792;12.076;2023-06-22T09:06:40;11.23;;;8.18;;
15228;SDS011;7717;47.792;12.076;2023-06-22T09:09:10;9.77;;;6.95;;
15228;SDS011;7717;47.792;12.076;2023-06-22T09:11:37;9.95;;;8.10;;
15228;SDS011;7717;47.792;12.076;2023-06-22T09:14:03;12.68;;;7.50;;
15228;SDS011;7717;47.792;12.076;2023-06-22T09:16:29;11.63;;;7.32;;
15228;SDS011;7717;47.792;12.076;2023-06-22T09:18:55;10.38;;;7.97;;
15228;SDS011;7717;47.792;12.076;2023-06-22T09:21:20;14.43;;;8.10;;
15228;SDS011;7717;47.792;12.076;2023-06-22T09:23:46;11.93;;;7.68;;
15228;SDS011;7717;47.792;12.076;2023-06-22T09:26:15;14.00;;;8.95;;
15228;SDS011;7717;47.792;12.076;2023-06-22T09:28:41;9.35;;;7.88;;
15228;SDS011;7717;47.792;12.076;2023-06-22T09:31:06;12.25;;;7.85;;
15228;SDS011;7717;47.792;12.076;2023-06-22T09:33:32;12.10;;;7.65;;
15228;SDS011;7717;47.792;12.076;2023-06-22T09:35:57;11.77;;;7.70;;
15228;SDS011;7717;47.792;12.076;2023-06-22T09:38:23;8.45;;;7.50;;
15228;SDS011;7717;47.792;12.076;2023-06-22T09:40:48;12.75;;;8.20;;
15228;SDS011;7717;47.792;12.076;2023-06-22T09:43:14;13.15;;;7.10;;
15228;SDS011;7717;47.792;12.076;2023-06-22T09:45:39;11.85;;;7.97;;
15228;SDS011;7717;47.792;12.076;2023-06-22T09:48:04;10.48;;;7.68;;
15228;SDS011;7717;47.792;12.076;2023-06-22T09:50:30;15.13;;;7.95;;
15228;SDS011;7717;47.792;12.076;2023-06-22T09:52:55;9.70;;;7.68;;
15228;SDS011;7717;47.792;12.076;2023-06-22T09:55:21;11.13;;;7.93;;
15228;SDS011;7717;47.792;12.076;2023-06-22T09:57:47;20.65;;;9.15;;
15228;SDS011;7717;47.792;12.076;2023-06-22T10:00:13;9.20;;;6.85;;
15228;SDS011;7717;47.792;12.076;2023-06-22T10:02:43;14.02;;;8.05;;
15228;SDS011;7717;47.792;12.076;2023-06-22T10:05:09;11.00;;;6.68;;
15228;SDS011;7717;47.792;12.076;2023-06-22T10:07:35;14.20;;;8.63;;
15228;SDS011;7717;47.792;12.076;2023-06-22T10:10:05;13.10;;;7.57;;
15228;SDS011;7717;47.792;12.076;2023-06-22T10:12:31;14.20;;;9.07;;
15228;SDS011;7717;47.792;12.076;2023-06-22T10:14:57;10.48;;;7.68;;
15228;SDS011;7717;47.792;12.076;2023-06-22T10:17:22;11.00;;;7.88;;
15228;SDS011;7717;47.792;12.076;2023-06-22T10:19:47;12.07;;;7.55;;
15228;SDS011;7717;47.792;12.076;2023-06-22T10:22:13;14.88;;;8.02;;
15228;SDS011;7717;47.792;12.076;2023-06-22T10:24:38;10.73;;;7.82;;
15228;SDS011;7717;47.792;12.076;2023-06-22T10:27:09;10.85;;;7.60;;
15228;SDS011;7717;47.792;12.076;2023-06-22T10:29:38;13.10;;;7.68;;
15228;SDS011;7717;47.792;12.076;2023-06-22T10:32:04;12.95;;;7.55;;
15228;SDS011;7717;47.792;12.076;2023-06-22T10:34:29;13.65;;;7.75;;
15228;SDS011;7717;47.792;12.076;2023-06-22T10:36:56;10.23;;;7.15;;
15228;SDS011;7717;47.792;12.076;2023-06-22T10:39:22;8.77;;;6.97;;
15228;SDS011;7717;47.792;12.076;2023-06-22T10:41:47;11.25;;;8.27;;
15228;SDS011;7717;47.792;12.076;2023-06-22T10:44:13;10.55;;;7.55;;
15228;SDS011;7717;47.792;12.076;2023-06-22T10:46:38;11.95;;;6.82;;
15228;SDS011;7717;47.792;12.076;2023-06-22T10:49:04;11.32;;;6.82;;
15228;SDS011;7717;47.792;12.076;2023-06-22T10:51:29;12.75;;;7.65;;
15228;SDS011;7717;47.792;12.076;2023-06-22T10:53:56;13.52;;;7.35;;
15228;SDS011;7717;47.792;12.076;2023-06-22T10:56:21;10.95;;;7.68;;
15228;SDS011;7717;47.792;12.076;2023-06-22T10:58:47;10.43;;;7.15;;
15228;SDS011;7717;47.792;12.076;2023-06-22T11:01:12;12.27;;;7.65;;
15228;SDS011;7717;47.792;12.076;2023-06-22T11:03:38;12.90;;;7.10;;
15228;SDS011;7717;47.792;12.076;2023-06-22T11:06:03;12.52;;;6.93;;
15228;SDS011;7717;47.792;12.076;2023-06-22T11:08:29;9.30;;;7.07;;
15228;SDS011;7717;47.792;12.076;2023-06-22T11:10:54;12.10;;;7.45;;
15228;SDS011;7717;47.792;12.076;2023-06-22T11:13:19;15.38;;;7.20;;
15228;SDS011;7717;47.792;12.076;2023-06-22T11:15:45;11.70;;;7.30;;
15228;SDS011;7717;47.792;12.076;2023-06-22T11:18:10;12.63;;;8.23;;
15228;SDS011;7717;47.792;12.076;2023-06-22T11:20:36;19.08;;;8.20;;
15228;SDS011;7717;47.792;12.076;2023-06-22T11:23:03;13.10;;;7.53;;
15228;SDS011;7717;47.792;12.076;2023-06-22T11:25:30;12.07;;;8.00;;
15228;SDS011;7717;47.792;12.076;2023-06-22T11:27:55;15.68;;;8.30;;
15228;SDS011;7717;47.792;12.076;2023-06-22T11:30:21;13.27;;;8.05;;
15228;SDS011;7717;47.792;12.076;2023-06-22T11:32:46;10.60;;;8.07;;
15228;SDS011;7717;47.792;12.076;2023-06-22T11:35:12;12.55;;;7.57;;
15228;SDS011;7717;47.792;12.076;2023-06-22T11:37:37;11.32;;;7.78;;
15228;SDS011;7717;47.792;12.076;2023-06-22T11:40:03;14.10;;;6.88;;
15228;SDS011;7717;47.792;12.076;2023-06-22T11:42:30;9.93;;;7.32;;
15228;SDS011;7717;47.792;12.076;2023-06-22T11:44:55;13.60;;;6.75;;
15228;SDS011;7717;47.792;12.076;2023-06-22T11:47:21;12.77;;;7.90;;
15228;SDS011;7717;47.792;12.076;2023-06-22T11:49:46;9.93;;;7.15;;
15228;SDS011;7717;47.792;12.076;2023-06-22T11:52:11;12.48;;;6.88;;
15228;SDS011;7717;47.792;12.076;2023-06-22T11:54:37;11.07;;;7.75;;
15228;SDS011;7717;47.792;12.076;2023-06-22T11:57:04;15.32;;;7.45;;
15228;SDS011;7717;47.792;12.076;2023-06-22T11:59:29;11.95;;;7.13;;
15228;SDS011;7717;47.792;12.076;2023-06-22T12:01:55;14.55;;;7.28;;
15228;SDS011;7717;47.792;12.076;2023-06-22T12:04:20;15.13;;;7.43;;
15228;SDS011;7717;47.792;12.076;2023-06-22T12:06:46;11.60;;;7.10;;
15228;SDS011;7717;47.792;12.076;2023-06-22T12:09:11;13.82;;;6.88;;
15228;SDS011;7717;47.792;12.076;2023-06-22T12:11:38;10.77;;;6.68;;
15228;SDS011;7717;47.792;12.076;2023-06-22T12:14:04;12.10;;;6.80;;
15228;SDS011;7717;47.792;12.076;2023-06-22T12:16:29;12.27;;;6.63;;
15228;SDS011;7717;47.792;12.076;2023-06-22T12:18:55;9.93;;;6.53;;
15228;SDS011;7717;47.792;12.076;2023-06-22T12:21:20;11.63;;;6.60;;
15228;SDS011;7717;47.792;12.076;2023-06-22T12:23:45;13.43;;;6.45;;
15228;SDS011;7717;47.792;12.076;2023-06-22T12:26:11;13.38;;;6.45;;
15228;SDS011;7717;47.792;12.076;2023-06-22T12:28:36;12.27;;;6.80;;
15228;SDS011;7717;47.792;12.076;2023-06-22T12:31:02;9.30;;;6.38;;
15228;SDS011;7717;47.792;12.076;2023-06-22T12:33:27;8.48;;;5.90;;
15228;SDS011;7717;47.792;12.076;2023-06-22T12:35:53;10.00;;;6.18;;
15228;SDS011;7717;47.792;12.076;2023-06-22T12:38:18;12.98;;;6.40;;
15228;SDS011;7717;47.792;12.076;2023-06-22T12:40:43;15.20;;;6.32;;
15228;SDS011;7717;47.792;12.076;2023-06-22T12:43:09;12.57;;;6.50;;
15228;SDS011;7717;47.792;12.076;2023-06-22T12:45:34;13.90;;;6.38;;
15228;SDS011;7717;47.792;12.076;2023-06-22T12:48:00;10.32;;;6.25;;
15228;SDS011;7717;47.792;12.076;2023-06-22T12:50:25;11.05;;;6.60;;
15228;SDS011;7717;47.792;12.076;2023-06-22T12:52:51;10.35;;;6.40;;
15228;SDS011;7717;47.792;12.076;2023-06-22T12:55:16;12.90;;;6.47;;
15228;SDS011;7717;47.792;12.076;2023-06-22T12:57:42;12.48;;;6.13;;
15228;SDS011;7717;47.792;12.076;2023-06-22T13:00:08;11.27;;;6.70;;
15228;SDS011;7717;47.792;12.076;2023-06-22T13:02:35;12.35;;;7.85;;
15228;SDS011;7717;47.792;12.076;2023-06-22T13:05:01;14.07;;;6.43;;
15228;SDS011;7717;47.792;12.076;2023-06-22T13:07:27;15.55;;;6.45;;
15228;SDS011;7717;47.792;12.076;2023-06-22T13:09:52;14.43;;;6.90;;
15228;SDS011;7717;47.792;12.076;2023-06-22T13:12:19;11.85;;;6.32;;
15228;SDS011;7717;47.792;12.076;2023-06-22T13:14:48;11.93;;;6.38;;
15228;SDS011;7717;47.792;12.076;2023-06-22T13:17:14;14.85;;;6.78;;
15228;SDS011;7717;47.792;12.076;2023-06-22T13:19:39;11.27;;;6.43;;
15228;SDS011;7717;47.792;12.076;2023-06-22T13:22:05;17.58;;;7.00;;
15228;SDS011;7717;47.792;12.076;2023-06-22T13:24:50;13.82;;;6.60;;
15228;SDS011;7717;47.792;12.076;2023-06-22T13:27:15;10.63;;;6.10;;
15228;SDS011;7717;47.792;12.076;2023-06-22T13:29:41;13.23;;;7.25;;
15228;SDS011;7717;47.792;12.076;2023-06-22T13:32:07;12.50;;;6.72;;
15228;SDS011;7717;47.792;12.076;2023-06-22T13:34:33;12.40;;;6.20;;
15228;SDS011;7717;47.792;12.076;2023-06-22T13:36:58;10.90;;;6.55;;
15228;SDS011;7717;47.792;12.076;2023-06-22T13:39:23;15.90;;;6.43;;
15228;SDS011;7717;47.792;12.076;2023-06-22T13:41:49;12.45;;;5.90;;
15228;SDS011;7717;47.792;12.076;2023-06-22T13:44:15;10.85;;;6.10;;
15228;SDS011;7717;47.792;12.076;2023-06-22T13:46:40;15.77;;;7.40;;
15228;SDS011;7717;47.792;12.076;2023-06-22T13:49:05;11.45;;;6.25;;
15228;SDS011;7717;47.792;12.076;2023-06-22T13:51:31;11.98;;;7.22;;
15228;SDS011;7717;47.792;12.076;2023-06-22T13:53:56;12.00;;;7.07;;
15228;SDS011;7717;47.792;12.076;2023-06-22T13:56:21;16.85;;;7.20;;
15228;SDS011;7717;47.792;12.076;2023-06-22T13:58:47;9.38;;;6.50;;
15228;SDS011;7717;47.792;12.076;2023-06-22T14:01:12;10.40;;;6.63;;
15228;SDS011;7717;47.792;12.076;2023-06-22T14:03:38;11.50;;;6.63;;
15228;SDS011;7717;47.792;12.076;2023-06-22T14:06:03;10.73;;;6.65;;
15228;SDS011;7717;47.792;12.076;2023-06-22T14:08:29;10.55;;;6.55;;
15228;SDS011;7717;47.792;12.076;2023-06-22T14:10:54;15.40;;;6.75;;
15228;SDS011;7717;47.792;12.076;2023-06-22T14:13:20;12.15;;;7.35;;
15228;SDS011;7717;47.792;12.076;2023-06-22T14:15:45;10.70;;;6.82;;
15228;SDS011;7717;47.792;12.076;2023-06-22T14:18:13;10.95;;;6.28;;
15228;SDS011;7717;47.792;12.076;2023-06-22T14:20:39;13.32;;;6.40;;
15228;SDS011;7717;47.792;12.076;2023-06-22T14:23:05;11.65;;;6.57;;
15228;SDS011;7717;47.792;12.076;2023-06-22T14:25:30;12.68;;;6.68;;
15228;SDS011;7717;47.792;12.076;2023-06-22T14:27:56;9.93;;;6.90;;
15228;SDS011;7717;47.792;12.076;2023-06-22T14:30:21;9.20;;;6.70;;
15228;SDS011;7717;47.792;12.076;2023-06-22T14:32:46;9.88;;;6.22;;
15228;SDS011;7717;47.792;12.076;2023-06-22T14:35:12;11.00;;;6.55;;
15228;SDS011;7717;47.792;12.076;2023-06-22T14:37:37;11.65;;;6.88;;